createdAt,value
2018-05-21T00:02:19.552Z,6.07
2018-05-21T00:04:47.888Z,6.47
2018-05-21T00:07:16.176Z,5.83
2018-05-21T00:09:44.483Z,5.63
2018-05-21T00:12:12.776Z,4.80
2018-05-21T00:14:41.873Z,5.03
2018-05-21T00:17:10.152Z,5.60
2018-05-21T00:19:38.472Z,5.57
2018-05-21T00:22:06.773Z,5.47
2018-05-21T00:24:35.095Z,4.90
2018-05-21T00:27:03.387Z,5.63
2018-05-21T00:29:31.816Z,5.40
2018-05-21T00:32:00.112Z,5.37
2018-05-21T00:34:28.528Z,5.03
2018-05-21T00:36:56.826Z,5.50
2018-05-21T00:39:25.311Z,4.80
2018-05-21T00:41:54.371Z,5.17
2018-05-21T00:44:23.595Z,5.43
2018-05-21T00:46:52.024Z,5.20
2018-05-21T00:49:20.303Z,5.13
2018-05-21T00:51:48.708Z,5.97
2018-05-21T00:54:17.765Z,4.87
2018-05-21T00:56:46.193Z,5.20
2018-05-21T00:59:14.484Z,4.77
2018-05-21T01:01:42.940Z,5.23
2018-05-21T01:04:11.984Z,5.10
2018-05-21T01:06:40.412Z,4.97
2018-05-21T01:09:09.456Z,4.83
2018-05-21T01:11:37.839Z,4.50
2018-05-21T01:14:06.900Z,5.43
2018-05-21T01:16:35.256Z,4.97
2018-05-21T01:19:03.532Z,5.33
2018-05-21T01:21:31.881Z,5.77
2018-05-21T01:24:00.182Z,5.37
2018-05-21T01:26:28.544Z,5.03
2018-05-21T01:28:56.823Z,5.33
2018-05-21T01:31:25.169Z,4.87
2018-05-21T01:33:53.444Z,5.27
2018-05-21T01:36:23.466Z,4.90
2018-05-21T01:38:51.793Z,4.73
2018-05-21T01:41:20.991Z,5.17
2018-05-21T01:43:50.063Z,5.37
2018-05-21T01:46:18.449Z,5.00
2018-05-21T01:48:46.796Z,5.77
2018-05-21T01:51:15.232Z,4.77
2018-05-21T01:53:44.321Z,5.07
2018-05-21T01:56:12.702Z,5.10
2018-05-21T01:58:41.812Z,5.50
2018-05-21T02:01:10.225Z,5.40
2018-05-21T02:03:38.500Z,5.40
2018-05-21T02:06:06.815Z,4.60
2018-05-21T02:08:35.118Z,4.73
2018-05-21T02:11:03.458Z,4.77
2018-05-21T02:13:31.749Z,4.53
2018-05-21T02:16:00.081Z,4.40
2018-05-21T02:18:28.377Z,4.90
2018-05-21T02:20:57.430Z,4.50
2018-05-21T02:23:25.747Z,4.50
2018-05-21T02:25:54.046Z,4.90
2018-05-21T02:28:22.356Z,4.60
2018-05-21T02:30:51.414Z,4.30
2018-05-21T02:33:19.746Z,4.63
2018-05-21T02:35:48.036Z,5.10
2018-05-21T02:38:16.345Z,4.43
2018-05-21T02:40:44.631Z,4.13
2018-05-21T02:43:12.937Z,4.13
2018-05-21T02:45:41.999Z,4.13
2018-05-21T02:48:10.308Z,4.27
2018-05-21T02:50:39.355Z,4.17
2018-05-21T02:53:07.689Z,4.40
2018-05-21T02:55:35.967Z,4.53
2018-05-21T02:58:04.288Z,4.30
2018-05-21T03:00:32.577Z,4.03
2018-05-21T03:03:00.889Z,4.33
2018-05-21T03:05:29.176Z,3.57
2018-05-21T03:07:57.486Z,4.10
2018-05-21T03:10:25.777Z,3.90
2018-05-21T03:12:54.101Z,3.47
2018-05-21T03:15:22.409Z,4.00
2018-05-21T03:17:50.729Z,3.60
2018-05-21T03:20:19.018Z,4.00
2018-05-21T03:22:47.359Z,3.97
2018-05-21T03:25:15.640Z,3.70
2018-05-21T03:27:43.963Z,3.50
2018-05-21T03:30:13.016Z,4.03
2018-05-21T03:32:41.331Z,3.70
2018-05-21T03:35:09.668Z,3.60
2018-05-21T03:37:37.988Z,3.43
2018-05-21T03:40:07.037Z,3.67
2018-05-21T03:42:35.355Z,3.57
2018-05-21T03:45:04.408Z,3.63
2018-05-21T03:47:33.491Z,3.60
2018-05-21T03:50:01.783Z,3.30
2018-05-21T03:52:30.097Z,3.57
2018-05-21T03:54:58.399Z,3.30
2018-05-21T03:57:26.716Z,3.50
2018-05-21T04:00:06.941Z,3.37
2018-05-21T04:02:46.988Z,3.20
2018-05-21T04:05:15.272Z,3.80
2018-05-21T04:07:43.590Z,3.27
2018-05-21T04:10:11.866Z,3.40
2018-05-21T04:12:40.197Z,3.03
2018-05-21T04:15:08.475Z,2.93
2018-05-21T04:17:36.795Z,3.20
2018-05-21T04:20:05.080Z,3.43
2018-05-21T04:22:33.395Z,3.07
2018-05-21T04:25:02.468Z,3.40
2018-05-21T04:27:30.753Z,3.10
2018-05-21T04:29:59.836Z,3.03
2018-05-21T04:32:28.152Z,3.30
2018-05-21T04:34:56.477Z,3.00
2018-05-21T04:37:24.764Z,3.20
2018-05-21T04:39:53.109Z,2.67
2018-05-21T04:42:21.392Z,3.00
2018-05-21T04:44:49.699Z,2.90
2018-05-21T04:47:17.991Z,2.60
2018-05-21T04:49:47.091Z,2.77
2018-05-21T04:52:16.168Z,2.90
2018-05-21T04:54:44.507Z,2.83
2018-05-21T04:57:12.801Z,2.83
2018-05-21T04:59:41.119Z,2.60
2018-05-21T05:02:10.230Z,2.37
2018-05-21T05:04:38.532Z,2.50
2018-05-21T05:07:06.812Z,3.20
2018-05-21T05:09:35.139Z,2.70
2018-05-21T05:12:03.439Z,2.93
2018-05-21T05:14:31.758Z,2.50
2018-05-21T05:17:00.039Z,2.60
2018-05-21T05:19:28.352Z,2.10
2018-05-21T05:21:57.408Z,2.57
2018-05-21T05:24:25.744Z,2.57
2018-05-21T05:26:54.039Z,2.40
2018-05-21T05:29:22.349Z,2.30
2018-05-21T05:31:50.633Z,2.47
2018-05-21T05:34:18.940Z,2.63
2018-05-21T05:36:47.993Z,2.70
2018-05-21T05:39:16.300Z,2.50
2018-05-21T05:41:44.605Z,2.23
2018-05-21T05:44:12.937Z,2.60
2018-05-21T05:46:41.237Z,2.90
2018-05-21T05:49:10.333Z,2.60
2018-05-21T05:51:39.391Z,2.23
2018-05-21T05:54:07.691Z,2.30
2018-05-21T05:56:35.981Z,2.93
2018-05-21T05:59:04.300Z,2.37
2018-05-21T06:01:32.580Z,2.53
2018-05-21T06:04:00.896Z,2.70
2018-05-21T06:06:29.172Z,2.37
2018-05-21T06:08:57.486Z,2.30
2018-05-21T06:11:26.552Z,2.57
2018-05-21T06:13:54.880Z,2.70
2018-05-21T06:16:23.160Z,2.90
2018-05-21T06:18:51.440Z,3.23
2018-05-21T06:21:19.749Z,3.23
2018-05-21T06:23:48.049Z,2.87
2018-05-21T06:26:16.392Z,2.70
2018-05-21T06:28:44.708Z,2.30
2018-05-21T06:31:13.784Z,2.80
2018-05-21T06:33:42.077Z,2.43
2018-05-21T06:36:10.406Z,3.70
2018-05-21T06:38:38.687Z,3.10
2018-05-21T06:41:07.088Z,3.53
2018-05-21T06:43:35.321Z,3.23
2018-05-21T06:46:03.628Z,4.40
2018-05-21T06:48:31.919Z,2.87
2018-05-21T06:51:00.254Z,2.87
2018-05-21T06:53:28.532Z,2.67
2018-05-21T06:55:56.845Z,3.00
2018-05-21T06:58:25.143Z,3.10
2018-05-21T07:00:53.447Z,3.10
2018-05-21T07:03:21.754Z,2.87
2018-05-21T07:05:50.070Z,2.40
2018-05-21T07:08:19.134Z,5.00
2018-05-21T07:10:47.470Z,3.33
2018-05-21T07:13:16.552Z,2.90
2018-05-21T07:15:45.627Z,3.03
2018-05-21T07:18:13.976Z,2.40
2018-05-21T07:20:42.248Z,2.60
2018-05-21T07:23:10.532Z,2.63
2018-05-21T07:25:38.859Z,3.00
2018-05-21T07:28:07.904Z,3.90
2018-05-21T07:30:36.220Z,2.80
2018-05-21T07:33:04.506Z,3.10
2018-05-21T07:35:32.832Z,2.60
2018-05-21T07:38:01.116Z,3.20
2018-05-21T07:40:29.433Z,2.63
2018-05-21T07:42:57.723Z,2.97
2018-05-21T07:45:26.040Z,2.63
2018-05-21T07:47:55.104Z,2.40
2018-05-21T07:50:23.434Z,3.17
2018-05-21T07:52:51.724Z,2.73
2018-05-21T07:55:20.049Z,2.40
2018-05-21T07:57:48.364Z,2.73
2018-05-21T08:00:16.652Z,2.67
2018-05-21T08:02:44.975Z,2.70
2018-05-21T08:05:13.255Z,2.93
2018-05-21T08:07:41.570Z,3.00
2018-05-21T08:10:09.855Z,3.10
2018-05-21T08:12:38.196Z,2.87
2018-05-21T08:15:06.502Z,2.77
2018-05-21T08:17:34.843Z,3.40
2018-05-21T08:20:03.124Z,2.97
2018-05-21T08:22:31.441Z,2.90
2018-05-21T08:24:59.730Z,3.10
2018-05-21T08:27:28.040Z,3.37
2018-05-21T08:29:57.113Z,3.27
2018-05-21T08:32:25.444Z,3.20
2018-05-21T08:34:53.729Z,2.83
2018-05-21T08:37:22.036Z,3.67
2018-05-21T08:39:50.403Z,2.97
2018-05-21T08:42:18.717Z,3.00
2018-05-21T08:44:47.767Z,3.43
2018-05-21T08:47:16.076Z,3.07
2018-05-21T08:49:44.390Z,3.40
2018-05-21T08:52:12.730Z,3.63
2018-05-21T08:54:41.009Z,4.50
2018-05-21T08:57:09.349Z,3.33
2018-05-21T08:59:37.629Z,2.97
2018-05-21T09:02:05.939Z,3.30
2018-05-21T09:04:34.220Z,3.50
2018-05-21T09:07:02.553Z,3.30
2018-05-21T09:09:30.829Z,3.20
2018-05-21T09:11:59.140Z,3.23
2018-05-21T09:14:27.423Z,3.30
2018-05-21T09:16:55.737Z,3.93
2018-05-21T09:19:24.021Z,3.80
2018-05-21T09:21:52.344Z,3.30
2018-05-21T09:24:20.659Z,3.07
2018-05-21T09:26:49.734Z,3.43
2018-05-21T09:29:18.016Z,3.20
2018-05-21T09:31:47.090Z,3.33
2018-05-21T09:34:15.389Z,3.20
2018-05-21T09:36:44.469Z,3.83
2018-05-21T09:39:12.762Z,3.10
2018-05-21T09:41:41.075Z,3.17
2018-05-21T09:44:09.382Z,3.67
2018-05-21T09:46:37.703Z,3.20
2018-05-21T09:49:06.762Z,3.23
2018-05-21T09:51:35.089Z,3.90
2018-05-21T09:54:03.376Z,3.27
2018-05-21T09:56:31.660Z,3.67
2018-05-21T09:58:59.982Z,3.80
2018-05-21T10:01:28.300Z,3.70
2018-05-21T10:03:56.640Z,3.20
2018-05-21T10:06:24.929Z,3.87
2018-05-21T10:08:54.013Z,4.17
2018-05-21T10:11:23.073Z,4.23
2018-05-21T10:13:51.408Z,3.60
2018-05-21T10:16:20.458Z,3.53
2018-05-21T10:18:48.780Z,3.50
2018-05-21T10:21:17.835Z,4.50
2018-05-21T10:23:46.148Z,4.33
2018-05-21T10:26:15.204Z,3.47
2018-05-21T10:28:43.520Z,3.87
2018-05-21T10:31:12.574Z,3.60
2018-05-21T10:33:41.652Z,3.90
2018-05-21T10:36:09.941Z,3.63
2018-05-21T10:38:38.257Z,4.00
2018-05-21T10:41:06.541Z,3.90
2018-05-21T10:43:35.641Z,4.23
2018-05-21T10:46:04.694Z,3.90
2018-05-21T10:48:33.013Z,3.80
2018-05-21T10:51:02.072Z,4.40
2018-05-21T10:53:30.387Z,4.50
2018-05-21T10:55:59.440Z,3.83
2018-05-21T10:58:27.760Z,4.20
2018-05-21T11:00:56.072Z,3.97
2018-05-21T11:03:24.440Z,3.60
2018-05-21T11:05:52.737Z,3.63
2018-05-21T11:08:21.059Z,4.00
2018-05-21T11:10:49.363Z,3.83
2018-05-21T11:13:17.720Z,3.77
2018-05-21T11:15:46.793Z,3.83
2018-05-21T11:18:15.109Z,4.00
2018-05-21T11:20:44.169Z,4.10
2018-05-21T11:23:12.484Z,4.70
2018-05-21T11:25:40.786Z,3.87
2018-05-21T11:28:09.105Z,4.00
2018-05-21T11:30:37.388Z,4.20
2018-05-21T11:33:05.709Z,4.00
2018-05-21T11:35:33.997Z,3.83
2018-05-21T11:38:02.304Z,4.00
2018-05-21T11:40:30.631Z,4.07
2018-05-21T11:42:58.911Z,4.10
2018-05-21T11:45:27.231Z,3.70
2018-05-21T11:47:55.517Z,3.93
2018-05-21T11:50:23.830Z,4.27
2018-05-21T11:52:52.880Z,3.87
2018-05-21T11:55:21.203Z,3.73
2018-05-21T11:57:49.484Z,4.00
2018-05-21T12:00:17.804Z,3.93
2018-05-21T12:02:46.185Z,3.83
2018-05-21T12:05:14.434Z,3.97
2018-05-21T12:07:42.740Z,3.87
2018-05-21T12:10:11.071Z,3.80
2018-05-21T12:12:39.364Z,3.60
2018-05-21T12:15:07.672Z,4.07
2018-05-21T12:17:35.968Z,4.00
2018-05-21T12:20:04.293Z,3.33
2018-05-21T12:22:32.580Z,3.83
2018-05-21T12:25:00.892Z,3.67
2018-05-21T12:27:29.195Z,3.30
2018-05-21T12:29:58.271Z,3.90
2018-05-21T12:32:26.560Z,3.60
2018-05-21T12:34:54.888Z,3.30
2018-05-21T12:37:23.189Z,3.83
2018-05-21T12:39:51.508Z,3.23
2018-05-21T12:42:19.802Z,3.80
2018-05-21T12:44:48.125Z,3.50
2018-05-21T12:47:16.409Z,3.40
2018-05-21T12:49:44.728Z,3.53
2018-05-21T12:52:13.004Z,4.13
2018-05-21T12:54:41.343Z,4.70
2018-05-21T12:57:09.637Z,3.40
2018-05-21T12:59:37.949Z,3.60
2018-05-21T13:02:06.303Z,3.73
2018-05-21T13:04:35.388Z,3.63
2018-05-21T13:07:03.680Z,3.90
2018-05-21T13:09:31.984Z,3.37
2018-05-21T13:12:00.268Z,4.00
2018-05-21T13:14:28.596Z,3.37
2018-05-21T13:16:56.888Z,3.20
2018-05-21T13:19:25.976Z,3.30
2018-05-21T13:21:55.034Z,3.73
2018-05-21T13:24:23.449Z,3.03
2018-05-21T13:26:51.660Z,3.10
2018-05-21T13:29:20.040Z,3.30
2018-05-21T13:31:48.277Z,3.00
2018-05-21T13:34:17.343Z,2.87
2018-05-21T13:36:45.633Z,3.03
2018-05-21T13:39:13.912Z,3.30
2018-05-21T13:41:42.216Z,3.50
2018-05-21T13:44:11.265Z,2.90
2018-05-21T13:46:39.578Z,3.40
2018-05-21T13:49:07.856Z,3.03
2018-05-21T13:51:36.941Z,3.37
2018-05-21T13:54:05.228Z,3.20
2018-05-21T13:56:34.320Z,3.10
2018-05-21T13:59:03.388Z,3.27
2018-05-21T14:01:31.717Z,3.20
2018-05-21T14:04:00.001Z,3.20
2018-05-21T14:06:28.337Z,3.10
2018-05-21T14:08:56.628Z,3.30
2018-05-21T14:11:25.704Z,3.17
2018-05-21T14:13:53.994Z,3.50
2018-05-21T14:16:22.313Z,3.23
2018-05-21T14:18:50.629Z,3.30
2018-05-21T14:21:18.940Z,2.90
2018-05-21T14:23:47.998Z,3.23
2018-05-21T14:26:16.312Z,3.40
2018-05-21T14:28:45.360Z,3.10
2018-05-21T14:31:13.687Z,3.50
2018-05-21T14:33:42.742Z,3.20
2018-05-21T14:36:11.055Z,3.37
2018-05-21T14:38:40.109Z,3.20
2018-05-21T14:41:08.425Z,3.23
2018-05-21T14:43:37.481Z,3.80
2018-05-21T14:46:05.798Z,3.17
2018-05-21T14:48:34.100Z,2.60
2018-05-21T14:51:02.412Z,3.10
2018-05-21T14:53:30.741Z,2.50
2018-05-21T14:55:59.064Z,2.90
2018-05-21T14:58:27.339Z,2.73
2018-05-21T15:00:55.657Z,2.83
2018-05-21T15:03:23.945Z,2.70
2018-05-21T15:05:53.021Z,3.27
2018-05-21T15:08:21.313Z,3.00
2018-05-21T15:10:50.387Z,2.83
2018-05-21T15:13:18.676Z,3.03
2018-05-21T15:15:46.961Z,2.50
2018-05-21T15:18:16.055Z,3.00
2018-05-21T15:20:45.107Z,2.70
2018-05-21T15:23:13.443Z,2.87
2018-05-21T15:25:41.728Z,2.60
2018-05-21T15:28:10.037Z,2.97
2018-05-21T15:30:38.324Z,2.33
2018-05-21T15:33:06.664Z,2.97
2018-05-21T15:35:34.950Z,2.90
2018-05-21T15:38:03.263Z,2.60
2018-05-21T15:40:31.565Z,3.50
2018-05-21T15:43:00.653Z,3.07
2018-05-21T15:45:28.932Z,2.90
2018-05-21T15:47:57.244Z,2.90
2018-05-21T15:50:25.544Z,2.93
2018-05-21T15:52:53.855Z,2.80
2018-05-21T15:55:22.133Z,2.63
2018-05-21T15:57:50.457Z,2.70
2018-05-21T16:00:18.784Z,2.80
2018-05-21T16:02:47.116Z,2.60
2018-05-21T16:05:15.408Z,2.60
2018-05-21T16:07:43.715Z,2.47
2018-05-21T16:10:12.022Z,2.40
2018-05-21T16:12:41.113Z,2.60
2018-05-21T16:15:10.179Z,2.70
2018-05-21T16:17:38.510Z,2.47
2018-05-21T16:20:06.793Z,2.43
2018-05-21T16:22:35.107Z,2.70
2018-05-21T16:25:03.398Z,2.50
2018-05-21T16:27:31.707Z,2.57
2018-05-21T16:30:00.761Z,2.40
2018-05-21T16:32:29.063Z,2.30
2018-05-21T16:34:58.129Z,2.40
2018-05-21T16:37:26.438Z,2.27
2018-05-21T16:39:55.487Z,2.13
2018-05-21T16:42:23.799Z,2.00
2018-05-21T16:44:52.067Z,2.07
2018-05-21T16:47:20.400Z,2.07
2018-05-21T16:49:48.691Z,1.87
2018-05-21T16:52:17.776Z,2.20
2018-05-21T16:54:46.068Z,2.00
2018-05-21T16:57:14.385Z,2.00
2018-05-21T16:59:42.669Z,2.20
2018-05-21T17:02:11.712Z,2.03
2018-05-21T17:04:40.036Z,2.10
2018-05-21T17:07:09.202Z,1.90
2018-05-21T17:09:38.229Z,2.17
2018-05-21T17:12:07.300Z,1.97
2018-05-21T17:14:35.629Z,2.20
2018-05-21T17:17:03.935Z,2.10
2018-05-21T17:19:33.008Z,2.50
2018-05-21T17:22:01.288Z,2.23
2018-05-21T17:24:29.633Z,2.00
2018-05-21T17:26:58.688Z,2.40
2018-05-21T17:29:27.067Z,2.27
2018-05-21T17:31:55.326Z,2.27
2018-05-21T17:34:23.632Z,2.20
2018-05-21T17:36:51.922Z,2.17
2018-05-21T17:39:20.235Z,1.93
2018-05-21T17:41:48.534Z,1.80
2018-05-21T17:44:16.866Z,2.13
2018-05-21T17:46:45.914Z,2.17
2018-05-21T17:49:14.232Z,1.63
2018-05-21T17:51:42.571Z,1.80
2018-05-21T17:54:10.849Z,1.33
2018-05-21T17:56:39.156Z,1.97
2018-05-21T17:59:07.485Z,1.83
2018-05-21T18:01:35.757Z,2.27
2018-05-21T18:04:04.079Z,2.00
2018-05-21T18:06:32.359Z,2.50
2018-05-21T18:09:00.661Z,2.50
2018-05-21T18:11:29.715Z,2.30
2018-05-21T18:13:58.028Z,3.03
2018-05-21T18:16:27.084Z,2.80
2018-05-21T18:18:55.399Z,2.93
2018-05-21T18:21:23.682Z,3.47
2018-05-21T18:23:52.769Z,3.13
2018-05-21T18:26:21.060Z,3.37
2018-05-21T18:28:50.132Z,2.80
2018-05-21T18:31:18.418Z,2.80
2018-05-21T18:33:46.748Z,3.50
2018-05-21T18:36:15.033Z,3.43
2018-05-21T18:38:43.348Z,4.10
2018-05-21T18:41:11.639Z,4.00
2018-05-21T18:43:40.715Z,3.20
2018-05-21T18:46:09.910Z,3.30
2018-05-21T18:48:38.213Z,2.60
2018-05-21T18:51:07.288Z,2.83
2018-05-21T18:53:35.584Z,2.63
2018-05-21T18:56:04.656Z,2.30
2018-05-21T18:58:32.940Z,4.83
2018-05-21T19:01:01.269Z,4.57
2018-05-21T19:03:29.557Z,3.80
2018-05-21T19:05:57.939Z,2.17
2018-05-21T19:08:26.944Z,2.33
2018-05-21T19:10:55.255Z,2.43
2018-05-21T19:13:24.301Z,2.30
2018-05-21T19:15:52.617Z,2.27
2018-05-21T19:18:20.905Z,2.40
2018-05-21T19:20:49.988Z,2.27
2018-05-21T19:23:18.272Z,2.30
2018-05-21T19:25:46.596Z,2.23
2018-05-21T19:28:14.882Z,2.83
2018-05-21T19:30:43.185Z,2.53
2018-05-21T19:33:11.473Z,5.83
2018-05-21T19:35:39.808Z,5.53
2018-05-21T19:38:08.116Z,2.70
2018-05-21T19:40:36.466Z,2.40
2018-05-21T19:43:04.755Z,2.33
2018-05-21T19:45:33.073Z,2.90
2018-05-21T19:48:02.135Z,3.27
2018-05-21T19:50:30.465Z,2.73
2018-05-21T19:52:58.751Z,3.13
2018-05-21T19:55:27.082Z,2.37
2018-05-21T19:57:55.356Z,2.37
2018-05-21T20:00:23.668Z,2.20
2018-05-21T20:02:51.952Z,5.20
2018-05-21T20:05:20.285Z,6.40
2018-05-21T20:07:48.571Z,4.30
2018-05-21T20:10:16.896Z,2.90
2018-05-21T20:12:45.175Z,2.57
2018-05-21T20:15:13.484Z,2.33
2018-05-21T20:17:41.767Z,2.40
2018-05-21T20:20:10.092Z,2.33
2018-05-21T20:22:38.384Z,2.30
2018-05-21T20:25:06.726Z,2.50
2018-05-21T20:27:35.057Z,2.67
2018-05-21T20:30:03.360Z,2.50
2018-05-21T20:32:31.667Z,2.50
2018-05-21T20:35:00.725Z,2.50
2018-05-21T20:37:29.036Z,5.90
2018-05-21T20:39:58.087Z,3.57
2018-05-21T20:42:26.405Z,2.73
2018-05-21T20:44:55.448Z,2.70
2018-05-21T20:47:23.757Z,2.27
2018-05-21T20:49:52.056Z,2.37
2018-05-21T20:52:21.133Z,2.27
2018-05-21T20:54:49.419Z,2.30
2018-05-21T20:57:17.759Z,2.37
2018-05-21T20:59:46.064Z,2.20
2018-05-21T21:02:14.375Z,4.60
2018-05-21T21:04:42.677Z,2.30
2018-05-21T21:07:10.984Z,2.20
2018-05-21T21:09:39.272Z,2.30
2018-05-21T21:12:07.600Z,2.57
2018-05-21T21:14:35.892Z,2.30
2018-05-21T21:17:04.240Z,2.13
2018-05-21T21:19:32.537Z,2.67
2018-05-21T21:22:00.857Z,2.23
2018-05-21T21:24:29.133Z,2.43
2018-05-21T21:26:57.448Z,2.70
2018-05-21T21:29:26.523Z,2.43
2018-05-21T21:31:54.841Z,3.07
2018-05-21T21:34:23.128Z,2.40
2018-05-21T21:36:51.436Z,2.80
2018-05-21T21:39:19.732Z,2.23
2018-05-21T21:41:48.045Z,2.80
2018-05-21T21:44:16.338Z,2.73
2018-05-21T21:46:44.660Z,2.50
2018-05-21T21:49:13.737Z,2.70
2018-05-21T21:51:42.072Z,2.17
2018-05-21T21:54:10.361Z,2.67
2018-05-21T21:56:38.680Z,2.77
2018-05-21T21:59:06.970Z,2.50
2018-05-21T22:01:35.293Z,3.20
2018-05-21T22:04:03.569Z,3.10
2018-05-21T22:06:31.885Z,2.50
2018-05-21T22:09:00.180Z,2.93
2018-05-21T22:11:28.497Z,2.50
2018-05-21T22:13:56.788Z,3.10
2018-05-21T22:16:25.116Z,2.70
2018-05-21T22:18:54.177Z,2.53
2018-05-21T22:21:22.499Z,2.70
2018-05-21T22:23:51.571Z,2.70
2018-05-21T22:26:19.851Z,2.97
2018-05-21T22:28:48.161Z,3.07
2018-05-21T22:31:16.457Z,2.60
2018-05-21T22:33:44.768Z,2.97
2018-05-21T22:36:13.069Z,2.77
2018-05-21T22:38:42.145Z,2.93
2018-05-21T22:41:10.451Z,2.70
2018-05-21T22:43:38.780Z,2.80
2018-05-21T22:46:07.060Z,3.27
2018-05-21T22:48:35.396Z,3.07
2018-05-21T22:51:03.677Z,3.20
2018-05-21T22:53:32.015Z,3.40
2018-05-21T22:56:00.304Z,2.57
2018-05-21T22:58:28.608Z,3.50
2018-05-21T23:00:56.912Z,3.50
2018-05-21T23:03:25.215Z,2.70
2018-05-21T23:05:53.495Z,3.70
2018-05-21T23:08:21.807Z,3.70
2018-05-21T23:10:50.100Z,3.00
2018-05-21T23:13:18.423Z,2.97
2018-05-21T23:15:46.700Z,3.37
2018-05-21T23:18:15.017Z,3.13
2018-05-21T23:20:43.301Z,2.80
2018-05-21T23:23:11.619Z,2.60
2018-05-21T23:25:39.896Z,2.80
2018-05-21T23:28:08.220Z,3.33
2018-05-21T23:30:37.276Z,3.50
2018-05-21T23:33:05.577Z,3.33
2018-05-21T23:35:33.861Z,3.17
2018-05-21T23:38:02.923Z,3.53
2018-05-21T23:40:31.218Z,3.00
2018-05-21T23:42:59.537Z,2.93
2018-05-21T23:45:27.815Z,3.00
2018-05-21T23:47:56.124Z,3.23
2018-05-21T23:50:24.405Z,3.30
2018-05-21T23:52:52.716Z,3.27
2018-05-21T23:55:21.763Z,3.23
2018-05-21T23:57:50.074Z,3.47
